Time;durP1;ratioP1;P1;durP2;ratioP2;P2;SDS_P1;SDS_P2;PMS_P1;PMS_P2;Temp;Humidity;BMP_temperature;BMP_pressure;BME280_temperature;BME280_humidity;BME280_pressure;Samples;Min_cycle;Max_cycle;Signal;HPM_P1;HPM_P2
2023/12/07 00:02:13;;;;;;;8.85;4.63;;;;;;;;;;5004512;28;100078;-72
2023/12/07 00:04:40;;;;;;;10.45;4.70;;;;;;;;;;5006453;28;99122;-71
2023/12/07 00:07:06;;;;;;;12.43;4.72;;;;;;;;;;5004814;28;98455;-73
2023/12/07 00:09:33;;;;;;;10.00;4.28;;;;;;;;;;5009067;27;97801;-71
2023/12/07 00:11:59;;;;;;;8.57;4.60;;;;;;;;;;5007985;27;102537;-72
2023/12/07 00:14:26;;;;;;;10.18;4.63;;;;;;;;;;5005865;28;100347;-72
2023/12/07 00:16:53;;;;;;;8.85;4.72;;;;;;;;;;5005924;28;100098;-72
2023/12/07 00:19:20;;;;;;;;;;;;;;;;;;5008848;27;99520;-72
2023/12/07 00:21:46;;;;;;;8.32;4.45;;;;;;;;;;5006815;27;128740;-73
2023/12/07 00:24:13;;;;;;;9.23;4.70;;;;;;;;;;5008253;27;98853;-72
2023/12/07 00:26:40;;;;;;;8.85;4.45;;;;;;;;;;5009135;28;98968;-72
2023/12/07 00:29:06;;;;;;;8.68;4.50;;;;;;;;;;5007668;27;98979;-72
2023/12/07 00:31:33;;;;;;;8.38;4.20;;;;;;;;;;5007180;28;100244;-72
2023/12/07 00:33:59;;;;;;;10.38;4.90;;;;;;;;;;5007280;28;102991;-73
2023/12/07 00:36:26;;;;;;;9.45;4.70;;;;;;;;;;5007486;27;98678;-73
2023/12/07 00:38:52;;;;;;;10.52;4.72;;;;;;;;;;5007832;27;98753;-75
2023/12/07 00:41:19;;;;;;;9.98;4.35;;;;;;;;;;4991851;28;99927;-72
2023/12/07 00:43:45;;;;;;;9.25;4.50;;;;;;;;;;5006065;27;98702;-72
2023/12/07 00:46:12;;;;;;;9.02;4.60;;;;;;;;;;5007247;27;99483;-73
2023/12/07 00:48:39;;;;;;;8.20;3.90;;;;;;;;;;5010554;27;99241;-72
2023/12/07 00:51:06;;;;;;;9.30;4.40;;;;;;;;;;5007720;27;99457;-73
2023/12/07 00:53:32;;;;;;;7.72;3.95;;;;;;;;;;5007265;28;99124;-73
2023/12/07 00:55:59;;;;;;;8.30;3.80;;;;;;;;;;5006822;27;98833;-73
2023/12/07 00:58:25;;;;;;;8.85;4.22;;;;;;;;;;5007937;27;98843;-73
2023/12/07 01:00:52;;;;;;;9.80;4.10;;;;;;;;;;5006640;27;99565;-72
2023/12/07 01:03:19;;;;;;;7.70;3.90;;;;;;;;;;5005887;28;98577;-73
2023/12/07 01:05:45;;;;;;;8.70;3.97;;;;;;;;;;5005996;28;99411;-72
2023/12/07 01:08:12;;;;;;;8.85;4.07;;;;;;;;;;5006672;28;99275;-73
2023/12/07 01:10:39;;;;;;;7.20;3.53;;;;;;;;;;5010204;27;98991;-72
2023/12/07 01:13:05;;;;;;;8.85;4.28;;;;;;;;;;5007020;27;99336;-73
2023/12/07 01:15:32;;;;;;;8.25;3.72;;;;;;;;;;5006703;28;98518;-72
2023/12/07 01:17:58;;;;;;;8.43;3.83;;;;;;;;;;5006927;27;103306;-72
2023/12/07 01:20:25;;;;;;;7.97;3.80;;;;;;;;;;5006101;27;100596;-72
2023/12/07 01:22:52;;;;;;;7.25;3.58;;;;;;;;;;5007445;27;98033;-72
2023/12/07 01:25:21;;;;;;;6.90;3.45;;;;;;;;;;5007345;27;98667;-72
2023/12/07 01:27:49;;;;;;;8.80;3.70;;;;;;;;;;5005951;28;100162;-72
2023/12/07 01:30:16;;;;;;;10.07;3.95;;;;;;;;;;5008218;28;99906;-72
2023/12/07 01:32:43;;;;;;;7.78;3.70;;;;;;;;;;5006237;27;99294;-73
2023/12/07 01:35:09;;;;;;;7.43;3.58;;;;;;;;;;5006775;27;98738;-73
2023/12/07 01:37:36;;;;;;;9.73;4.00;;;;;;;;;;5006205;27;99084;-72
2023/12/07 01:40:05;;;;;;;7.75;3.92;;;;;;;;;;5005809;28;100327;-72
2023/12/07 01:42:32;;;;;;;8.43;4.00;;;;;;;;;;5006226;28;98614;-72
2023/12/07 01:44:58;;;;;;;10.43;3.90;;;;;;;;;;5006427;28;100006;-73
2023/12/07 01:47:26;;;;;;;11.88;4.20;;;;;;;;;;5007159;27;98935;-72
2023/12/07 01:49:52;;;;;;;9.38;3.70;;;;;;;;;;5005182;28;98450;-72
2023/12/07 01:52:22;;;;;;;10.85;3.88;;;;;;;;;;5009623;28;98735;-72
2023/12/07 01:54:49;;;;;;;10.15;3.90;;;;;;;;;;5004429;28;99546;-72
2023/12/07 01:57:15;;;;;;;8.25;3.90;;;;;;;;;;5006358;27;101141;-72
2023/12/07 01:59:42;;;;;;;8.32;3.60;;;;;;;;;;5004705;28;100683;-72
2023/12/07 02:02:08;;;;;;;7.85;3.92;;;;;;;;;;5006112;28;105458;-72
2023/12/07 02:04:35;;;;;;;7.97;3.67;;;;;;;;;;5006264;28;98677;-72
2023/12/07 02:07:03;;;;;;;13.32;3.95;;;;;;;;;;5005721;28;99050;-73
2023/12/07 02:09:30;;;;;;;9.98;3.97;;;;;;;;;;5005954;27;98941;-71
2023/12/07 02:11:57;;;;;;;7.15;3.50;;;;;;;;;;5005881;28;99877;-71
2023/12/07 02:14:24;;;;;;;8.10;3.47;;;;;;;;;;5009068;28;99065;-70
2023/12/07 02:17:01;;;;;;;8.35;4.00;;;;;;;;;;5004182;28;100541;-71
2023/12/07 02:19:57;;;;;;;8.73;3.75;;;;;;;;;;5004959;28;99763;-71
2023/12/07 02:22:26;;;;;;;8.57;3.53;;;;;;;;;;4996169;27;99070;-71
2023/12/07 02:25:13;;;;;;;9.88;3.83;;;;;;;;;;5005617;28;100108;-71
2023/12/07 02:27:41;;;;;;;7.07;3.42;;;;;;;;;;5004488;28;99516;-70
2023/12/07 02:30:08;;;;;;;8.02;3.80;;;;;;;;;;5005230;28;98465;-71
2023/12/07 02:32:36;;;;;;;7.18;3.35;;;;;;;;;;5005021;28;98970;-72
2023/12/07 02:35:03;;;;;;;;;;;;;;;;;;5005820;28;100295;-72
2023/12/07 02:37:32;;;;;;;8.07;3.20;;;;;;;;;;5006117;28;97837;-71
2023/12/07 02:40:00;;;;;;;8.15;3.58;;;;;;;;;;5004112;28;100129;-71
2023/12/07 02:42:27;;;;;;;;;;;;;;;;;;5002640;28;98790;-72
2023/12/07 02:44:53;;;;;;;7.88;3.60;;;;;;;;;;5005377;28;126339;-72
2023/12/07 02:47:20;;;;;;;7.75;3.40;;;;;;;;;;5003841;28;99992;-72
2023/12/07 02:49:46;;;;;;;7.78;3.45;;;;;;;;;;5004642;28;98936;-72
2023/12/07 02:52:13;;;;;;;14.07;3.60;;;;;;;;;;5005389;28;98779;-72
2023/12/07 02:54:39;;;;;;;7.45;3.60;;;;;;;;;;5005152;28;100705;-72
2023/12/07 02:57:06;;;;;;;7.78;3.42;;;;;;;;;;5005598;28;98750;-72
2023/12/07 02:59:32;;;;;;;9.35;3.22;;;;;;;;;;5008034;28;98696;-72
2023/12/07 03:01:59;;;;;;;9.75;3.60;;;;;;;;;;5005515;28;97893;-72
2023/12/07 03:04:25;;;;;;;8.48;3.47;;;;;;;;;;5005542;28;99077;-72
2023/12/07 03:06:52;;;;;;;9.50;3.53;;;;;;;;;;5004581;28;100162;-72
2023/12/07 03:09:18;;;;;;;9.48;3.53;;;;;;;;;;5004811;28;99803;-72
2023/12/07 03:11:45;;;;;;;7.55;3.42;;;;;;;;;;5004529;28;99445;-72
2023/12/07 03:14:11;;;;;;;9.57;3.72;;;;;;;;;;5004777;28;99157;-72
2023/12/07 03:16:38;;;;;;;7.38;3.30;;;;;;;;;;5004376;28;99733;-72
2023/12/07 03:19:05;;;;;;;7.85;3.10;;;;;;;;;;5008064;28;98981;-72
2023/12/07 03:21:32;;;;;;;7.03;3.40;;;;;;;;;;5004763;28;98529;-72
2023/12/07 03:23:58;;;;;;;7.15;3.20;;;;;;;;;;5002904;28;99564;-72
2023/12/07 03:26:25;;;;;;;9.05;3.30;;;;;;;;;;5005081;28;98465;-72
2023/12/07 03:28:51;;;;;;;8.10;3.17;;;;;;;;;;5005542;28;98971;-72
2023/12/07 03:31:18;;;;;;;11.20;3.75;;;;;;;;;;5004353;28;100019;-72
2023/12/07 03:33:44;;;;;;;8.43;3.33;;;;;;;;;;5003273;28;101156;-72
2023/12/07 03:36:11;;;;;;;8.75;3.35;;;;;;;;;;4997298;28;98905;-73
2023/12/07 03:38:38;;;;;;;14.07;3.83;;;;;;;;;;4985223;28;100321;-72
2023/12/07 03:41:04;;;;;;;7.70;3.30;;;;;;;;;;5007504;28;99902;-73
2023/12/07 03:43:30;;;;;;;7.70;3.28;;;;;;;;;;5006451;28;100181;-73
2023/12/07 03:45:57;;;;;;;9.93;3.40;;;;;;;;;;5006850;27;100270;-72
2023/12/07 03:48:24;;;;;;;9.82;3.50;;;;;;;;;;5008509;28;99377;-71
2023/12/07 03:50:50;;;;;;;7.55;3.10;;;;;;;;;;5008701;28;98903;-72
2023/12/07 03:53:17;;;;;;;7.60;3.35;;;;;;;;;;5007846;27;99607;-72
2023/12/07 03:55:44;;;;;;;7.30;3.17;;;;;;;;;;5007741;27;98932;-71
2023/12/07 03:58:10;;;;;;;8.13;3.13;;;;;;;;;;5007634;27;99940;-72
2023/12/07 04:00:37;;;;;;;7.60;3.33;;;;;;;;;;5007366;28;100318;-72
2023/12/07 04:03:04;;;;;;;6.13;3.00;;;;;;;;;;5011694;27;98752;-71
2023/12/07 04:05:31;;;;;;;6.65;3.40;;;;;;;;;;5007691;27;99611;-71
2023/12/07 04:07:57;;;;;;;7.10;3.42;;;;;;;;;;5007000;28;98726;-73
2023/12/07 04:10:24;;;;;;;6.60;3.10;;;;;;;;;;5008006;28;98919;-71
2023/12/07 04:12:52;;;;;;;7.80;3.60;;;;;;;;;;5007617;28;100790;-71
2023/12/07 04:15:19;;;;;;;7.88;3.22;;;;;;;;;;5008156;28;98066;-71
2023/12/07 04:17:46;;;;;;;6.93;3.10;;;;;;;;;;5006984;27;98578;-71
2023/12/07 04:20:13;;;;;;;7.18;3.30;;;;;;;;;;5005458;28;101952;-72
2023/12/07 04:22:39;;;;;;;8.43;3.40;;;;;;;;;;5007911;28;100078;-72
2023/12/07 04:25:06;;;;;;;6.72;3.05;;;;;;;;;;5010410;27;101388;-72
2023/12/07 04:27:33;;;;;;;7.88;3.25;;;;;;;;;;5007371;28;98783;-72
2023/12/07 04:30:00;;;;;;;9.55;3.20;;;;;;;;;;5007301;27;103300;-72
2023/12/07 04:32:26;;;;;;;7.47;3.20;;;;;;;;;;5007032;28;100221;-72
2023/12/07 04:34:53;;;;;;;7.68;3.25;;;;;;;;;;5007070;27;98789;-72
2023/12/07 04:37:20;;;;;;;7.88;3.33;;;;;;;;;;5007694;28;98753;-72
2023/12/07 04:39:46;;;;;;;7.45;3.00;;;;;;;;;;5006229;28;100483;-72
2023/12/07 04:42:13;;;;;;;7.70;3.00;;;;;;;;;;5007001;28;99171;-72
2023/12/07 04:44:39;;;;;;;7.45;3.25;;;;;;;;;;5007545;28;98769;-71
2023/12/07 04:47:06;;;;;;;7.03;3.08;;;;;;;;;;5009565;28;100028;-71
2023/12/07 04:49:32;;;;;;;6.40;2.97;;;;;;;;;;5006917;28;99624;-71
2023/12/07 04:51:59;;;;;;;8.77;3.53;;;;;;;;;;5006849;28;104866;-71
2023/12/07 04:54:27;;;;;;;8.65;3.10;;;;;;;;;;5006059;28;98674;-72
2023/12/07 04:56:54;;;;;;;14.00;3.38;;;;;;;;;;5007105;28;99916;-71
2023/12/07 04:59:20;;;;;;;13.35;3.60;;;;;;;;;;5006869;28;100190;-72
2023/12/07 05:01:47;;;;;;;12.65;3.58;;;;;;;;;;5005989;27;98989;-72
2023/12/07 05:04:14;;;;;;;11.90;3.40;;;;;;;;;;5005635;28;105380;-72
2023/12/07 05:06:40;;;;;;;9.02;3.38;;;;;;;;;;5006490;28;99076;-71
2023/12/07 05:09:09;;;;;;;8.65;3.65;;;;;;;;;;5010372;28;98911;-71
2023/12/07 05:11:36;;;;;;;9.10;3.78;;;;;;;;;;5005360;28;100413;-71
2023/12/07 05:14:03;;;;;;;7.90;3.33;;;;;;;;;;5006801;28;98476;-72
2023/12/07 05:16:29;;;;;;;8.70;3.45;;;;;;;;;;5006540;28;98960;-72
2023/12/07 05:18:56;;;;;;;8.07;3.47;;;;;;;;;;5006260;28;99226;-71
2023/12/07 05:21:23;;;;;;;8.25;3.70;;;;;;;;;;5006453;28;98897;-71
2023/12/07 05:23:49;;;;;;;8.00;3.38;;;;;;;;;;5005835;27;100128;-72
2023/12/07 05:26:15;;;;;;;8.50;3.47;;;;;;;;;;5006045;28;99404;-71
2023/12/07 05:28:43;;;;;;;8.15;3.35;;;;;;;;;;5008834;28;98450;-72
2023/12/07 05:31:15;;;;;;;8.00;3.40;;;;;;;;;;5005942;28;99175;-71
2023/12/07 05:33:42;;;;;;;7.28;3.25;;;;;;;;;;4995429;28;98712;-72
2023/12/07 05:36:09;;;;;;;8.23;3.55;;;;;;;;;;4986353;28;100549;-72
2023/12/07 05:38:35;;;;;;;9.10;3.35;;;;;;;;;;4986241;28;99094;-72
2023/12/07 05:41:03;;;;;;;8.05;3.58;;;;;;;;;;4992662;28;98547;-72
2023/12/07 05:43:29;;;;;;;;;;;;;;;;;;5006874;28;99924;-72
2023/12/07 05:45:56;;;;;;;7.38;3.67;;;;;;;;;;5005748;28;122887;-72
2023/12/07 05:48:22;;;;;;;8.45;3.60;;;;;;;;;;5005815;27;98514;-72
2023/12/07 05:50:49;;;;;;;8.52;3.63;;;;;;;;;;5008773;28;99997;-72
2023/12/07 05:53:15;;;;;;;7.95;3.72;;;;;;;;;;5006745;28;97809;-72
2023/12/07 05:55:42;;;;;;;8.70;3.70;;;;;;;;;;5004746;28;99310;-72
2023/12/07 05:58:09;;;;;;;8.27;3.70;;;;;;;;;;5006144;28;99205;-72
2023/12/07 06:00:37;;;;;;;9.15;3.80;;;;;;;;;;5005588;28;99292;-72
2023/12/07 06:03:05;;;;;;;7.45;3.38;;;;;;;;;;5006311;28;98764;-72
2023/12/07 06:05:31;;;;;;;9.45;3.70;;;;;;;;;;5004986;28;100239;-72
2023/12/07 06:07:58;;;;;;;12.73;3.95;;;;;;;;;;5005697;28;99105;-72
2023/12/07 06:10:25;;;;;;;9.55;3.70;;;;;;;;;;5005922;28;98901;-72
2023/12/07 06:12:51;;;;;;;9.63;3.83;;;;;;;;;;5008892;28;99678;-72
2023/12/07 06:15:18;;;;;;;9.30;3.92;;;;;;;;;;5006083;28;100323;-72
2023/12/07 06:17:45;;;;;;;7.72;3.60;;;;;;;;;;5005625;28;100134;-72
2023/12/07 06:20:12;;;;;;;8.35;3.88;;;;;;;;;;5005932;28;98791;-72
2023/12/07 06:22:38;;;;;;;8.55;3.83;;;;;;;;;;5006636;28;99010;-72
2023/12/07 06:25:05;;;;;;;8.48;4.00;;;;;;;;;;4986804;28;102245;-72
2023/12/07 06:27:33;;;;;;;8.35;4.20;;;;;;;;;;5005937;28;98952;-71
2023/12/07 06:30:00;;;;;;;9.45;4.15;;;;;;;;;;5005244;28;103370;-71
2023/12/07 06:32:26;;;;;;;8.98;4.00;;;;;;;;;;4993791;28;99255;-73
2023/12/07 06:34:53;;;;;;;8.70;4.13;;;;;;;;;;4989033;28;98625;-73
2023/12/07 06:37:20;;;;;;;11.98;4.50;;;;;;;;;;4985544;28;100072;-72
2023/12/07 06:39:48;;;;;;;8.07;4.00;;;;;;;;;;4994448;28;98562;-72
2023/12/07 06:42:16;;;;;;;8.93;4.20;;;;;;;;;;5006172;28;98947;-73
2023/12/07 06:44:43;;;;;;;8.93;4.68;;;;;;;;;;5003095;28;101632;-73
2023/12/07 06:47:09;;;;;;;8.20;4.30;;;;;;;;;;5005459;28;99035;-73
2023/12/07 06:49:36;;;;;;;8.27;4.18;;;;;;;;;;5004500;28;99621;-72
2023/12/07 06:52:15;;;;;;;8.02;4.07;;;;;;;;;;5005100;27;100112;-73
2023/12/07 06:54:42;;;;;;;7.70;3.90;;;;;;;;;;5004930;27;98633;-73
2023/12/07 06:57:08;;;;;;;8.32;4.30;;;;;;;;;;5008168;28;100143;-73
2023/12/07 06:59:35;;;;;;;8.43;4.57;;;;;;;;;;5004974;27;98563;-73
2023/12/07 07:02:02;;;;;;;8.25;4.60;;;;;;;;;;5005123;28;100076;-73
2023/12/07 07:04:29;;;;;;;8.57;4.25;;;;;;;;;;5002752;28;100270;-71
2023/12/07 07:06:56;;;;;;;9.20;4.18;;;;;;;;;;5005486;27;98096;-72
2023/12/07 07:09:23;;;;;;;7.93;4.43;;;;;;;;;;5004744;28;98677;-71
2023/12/07 07:11:50;;;;;;;9.07;4.30;;;;;;;;;;5002562;28;100441;-72
2023/12/07 07:14:16;;;;;;;23.77;4.78;;;;;;;;;;5004522;28;99573;-72
2023/12/07 07:16:43;;;;;;;9.27;4.35;;;;;;;;;;5004713;27;100157;-73
2023/12/07 07:19:10;;;;;;;12.73;4.35;;;;;;;;;;5007481;27;100757;-72
2023/12/07 07:21:37;;;;;;;11.23;4.57;;;;;;;;;;5004246;28;98894;-72
2023/12/07 07:24:03;;;;;;;8.75;4.47;;;;;;;;;;5004214;28;99226;-72
2023/12/07 07:26:32;;;;;;;9.25;4.32;;;;;;;;;;5002879;28;98621;-72
2023/12/07 07:28:59;;;;;;;15.10;4.60;;;;;;;;;;5005232;27;98845;-73
2023/12/07 07:31:25;;;;;;;9.18;4.28;;;;;;;;;;5004301;28;98462;-73
2023/12/07 07:33:52;;;;;;;10.90;4.28;;;;;;;;;;5003759;28;98537;-72
2023/12/07 07:36:27;;;;;;;10.18;4.32;;;;;;;;;;5004531;28;98868;-71
2023/12/07 07:38:53;;;;;;;9.82;4.30;;;;;;;;;;5006257;28;101115;-71
2023/12/07 07:41:20;;;;;;;10.90;4.43;;;;;;;;;;5004857;28;99499;-71
2023/12/07 07:43:46;;;;;;;9.77;3.88;;;;;;;;;;5003509;27;99132;-71
2023/12/07 07:46:14;;;;;;;12.32;4.28;;;;;;;;;;5002593;28;98955;-71
2023/12/07 07:48:40;;;;;;;8.05;4.00;;;;;;;;;;5004855;28;98880;-72
2023/12/07 07:51:07;;;;;;;8.57;3.97;;;;;;;;;;5003844;28;98535;-71
2023/12/07 07:53:34;;;;;;;10.07;4.03;;;;;;;;;;5003148;27;98811;-70
2023/12/07 07:56:00;;;;;;;8.63;3.95;;;;;;;;;;5002225;28;99243;-71
2023/12/07 07:58:27;;;;;;;8.07;4.00;;;;;;;;;;5001022;28;100379;-71
2023/12/07 08:00:53;;;;;;;8.50;3.90;;;;;;;;;;4987986;28;99253;-71
2023/12/07 08:03:20;;;;;;;8.35;3.97;;;;;;;;;;5001712;28;100845;-72
2023/12/07 08:05:47;;;;;;;8.10;4.28;;;;;;;;;;5001431;28;98953;-72
2023/12/07 08:08:13;;;;;;;9.63;4.00;;;;;;;;;;5002660;28;98782;-73
2023/12/07 08:10:40;;;;;;;7.47;3.75;;;;;;;;;;5001909;28;100498;-73
2023/12/07 08:13:21;;;;;;;8.63;3.78;;;;;;;;;;5002324;28;98961;-72
2023/12/07 08:15:48;;;;;;;7.28;3.95;;;;;;;;;;5001075;28;99059;-72
2023/12/07 08:18:14;;;;;;;7.45;4.00;;;;;;;;;;5002550;28;99055;-73
2023/12/07 08:20:41;;;;;;;7.80;3.90;;;;;;;;;;5001757;28;98578;-73
2023/12/07 08:23:07;;;;;;;7.43;3.95;;;;;;;;;;5005293;28;98844;-74
2023/12/07 08:25:34;;;;;;;7.68;4.30;;;;;;;;;;5000952;28;98591;-73
2023/12/07 08:28:00;;;;;;;7.82;4.10;;;;;;;;;;5000834;28;99706;-72
2023/12/07 08:30:27;;;;;;;9.43;4.38;;;;;;;;;;5002670;28;99300;-72
2023/12/07 08:32:53;;;;;;;7.10;4.00;;;;;;;;;;5005601;28;106189;-72
2023/12/07 08:35:21;;;;;;;6.97;4.10;;;;;;;;;;5005336;28;99321;-72
2023/12/07 08:37:48;;;;;;;7.65;4.20;;;;;;;;;;5002518;28;100588;-72
2023/12/07 08:40:15;;;;;;;8.02;3.90;;;;;;;;;;5002386;28;98956;-72
2023/12/07 08:42:42;;;;;;;;;;;;;;;;;;5005383;27;98880;-72
2023/12/07 08:45:08;;;;;;;7.07;4.15;;;;;;;;;;5009166;27;118702;-72
2023/12/07 08:47:35;;;;;;;6.88;4.05;;;;;;;;;;5004680;27;98753;-72
2023/12/07 08:50:01;;;;;;;7.60;4.15;;;;;;;;;;5004232;28;100505;-72
2023/12/07 08:52:28;;;;;;;7.22;4.03;;;;;;;;;;5004168;28;99917;-72
2023/12/07 08:55:10;;;;;;;6.88;3.67;;;;;;;;;;5004404;27;100095;-72
2023/12/07 08:57:37;;;;;;;7.15;4.00;;;;;;;;;;5000755;28;99393;-72
2023/12/07 09:00:04;;;;;;;6.95;3.80;;;;;;;;;;5003271;28;105416;-72
2023/12/07 09:02:30;;;;;;;6.63;3.65;;;;;;;;;;5002823;28;99936;-73
2023/12/07 09:05:12;;;;;;;6.82;4.00;;;;;;;;;;5003681;28;101038;-74
2023/12/07 09:07:38;;;;;;;6.82;3.88;;;;;;;;;;5006771;27;98734;-72
2023/12/07 09:10:05;;;;;;;7.97;4.10;;;;;;;;;;5004347;27;99474;-72
2023/12/07 09:12:31;;;;;;;7.03;3.97;;;;;;;;;;5005411;28;98901;-72
2023/12/07 09:15:07;;;;;;;7.38;4.00;;;;;;;;;;5005883;28;99367;-72
2023/12/07 09:17:34;;;;;;;7.28;4.20;;;;;;;;;;5004112;27;99883;-69
2023/12/07 09:20:01;;;;;;;;;;;;;;;;;;5005922;28;98590;-71
2023/12/07 09:22:27;;;;;;;8.43;4.10;;;;;;;;;;5006431;28;127980;-72
2023/12/07 09:25:03;;;;;;;7.13;3.80;;;;;;;;;;5005228;28;101024;-73
2023/12/07 09:27:31;;;;;;;7.10;3.92;;;;;;;;;;5005911;28;98942;-73
2023/12/07 09:29:58;;;;;;;7.05;3.88;;;;;;;;;;5007011;28;100029;-71
2023/12/07 09:32:25;;;;;;;6.85;3.75;;;;;;;;;;5005829;28;99053;-71
2023/12/07 09:35:02;;;;;;;6.30;3.65;;;;;;;;;;5005699;28;98932;-71
2023/12/07 09:37:29;;;;;;;6.22;3.40;;;;;;;;;;5004809;28;100668;-72
2023/12/07 09:39:55;;;;;;;6.10;3.40;;;;;;;;;;5004721;28;99069;-72
2023/12/07 09:42:22;;;;;;;6.25;3.55;;;;;;;;;;5004336;28;99873;-71
2023/12/07 09:44:56;;;;;;;6.03;3.50;;;;;;;;;;5004540;28;99169;-72
2023/12/07 09:47:23;;;;;;;5.97;3.38;;;;;;;;;;5005465;28;98942;-71
2023/12/07 09:50:01;;;;;;;5.50;3.25;;;;;;;;;;5007614;28;103330;-71
2023/12/07 09:52:28;;;;;;;7.57;3.10;;;;;;;;;;5005044;28;98679;-73
2023/12/07 09:54:55;;;;;;;6.07;3.17;;;;;;;;;;5005173;28;99730;-73
2023/12/07 09:57:22;;;;;;;5.70;3.00;;;;;;;;;;5004900;28;100364;-73
2023/12/07 09:59:49;;;;;;;6.28;3.33;;;;;;;;;;5005129;28;97723;-73
2023/12/07 10:02:16;;;;;;;6.00;2.80;;;;;;;;;;5005378;27;98607;-73
2023/12/07 10:04:43;;;;;;;5.72;3.00;;;;;;;;;;5002735;28;100233;-73
2023/12/07 10:07:09;;;;;;;5.28;3.00;;;;;;;;;;5002724;28;99483;-72
2023/12/07 10:09:42;;;;;;;5.47;2.90;;;;;;;;;;5003176;28;100496;-72
2023/12/07 10:12:09;;;;;;;5.20;2.80;;;;;;;;;;5006936;28;99456;-73
2023/12/07 10:14:37;;;;;;;5.47;2.75;;;;;;;;;;5002923;28;99940;-72
2023/12/07 10:17:04;;;;;;;5.55;2.80;;;;;;;;;;5018578;28;100786;-72
2023/12/07 10:19:30;;;;;;;5.45;2.83;;;;;;;;;;5004622;28;98808;-72
2023/12/07 10:21:59;;;;;;;5.50;2.78;;;;;;;;;;5004193;28;99097;-73
2023/12/07 10:24:27;;;;;;;5.57;2.40;;;;;;;;;;5003970;28;98719;-72
2023/12/07 10:26:56;;;;;;;5.78;2.75;;;;;;;;;;4988024;28;98993;-73
2023/12/07 10:29:29;;;;;;;5.00;2.53;;;;;;;;;;4981453;28;99587;-72
2023/12/07 10:32:00;;;;;;;6.15;2.80;;;;;;;;;;4979989;28;105318;-72
2023/12/07 10:34:27;;;;;;;5.53;2.80;;;;;;;;;;4985520;28;98981;-72
2023/12/07 10:36:55;;;;;;;5.75;2.60;;;;;;;;;;4981916;28;100216;-72
2023/12/07 10:39:24;;;;;;;6.10;2.60;;;;;;;;;;4988885;28;98899;-72
2023/12/07 10:42:01;;;;;;;5.03;2.55;;;;;;;;;;5003296;28;105675;-72
2023/12/07 10:44:28;;;;;;;6.55;2.63;;;;;;;;;;5003417;28;99070;-72
2023/12/07 10:46:55;;;;;;;8.70;2.85;;;;;;;;;;5004233;27;99394;-72
2023/12/07 10:49:26;;;;;;;5.82;2.50;;;;;;;;;;5004542;28;99035;-72
2023/12/07 10:52:01;;;;;;;6.13;2.40;;;;;;;;;;5002268;28;104011;-73
2023/12/07 10:54:39;;;;;;;5.57;2.50;;;;;;;;;;5002571;28;98919;-71
2023/12/07 10:57:07;;;;;;;4.95;2.50;;;;;;;;;;5007406;28;99459;-71
2023/12/07 10:59:34;;;;;;;4.88;2.40;;;;;;;;;;5004080;28;98883;-71
2023/12/07 11:02:01;;;;;;;4.05;2.22;;;;;;;;;;5003356;28;103416;-71
2023/12/07 11:04:29;;;;;;;6.22;2.63;;;;;;;;;;5003565;28;100268;-71
2023/12/07 11:06:59;;;;;;;4.68;2.30;;;;;;;;;;5004337;27;99032;-72
2023/12/07 11:09:28;;;;;;;5.03;2.20;;;;;;;;;;5003399;27;99831;-70
2023/12/07 11:12:01;;;;;;;5.18;2.38;;;;;;;;;;5003093;28;99794;-71
2023/12/07 11:14:27;;;;;;;5.07;2.30;;;;;;;;;;5002893;28;98073;-73
2023/12/07 11:16:55;;;;;;;6.00;2.60;;;;;;;;;;5003410;28;99348;-72
2023/12/07 11:19:39;;;;;;;5.68;2.30;;;;;;;;;;5006341;28;99540;-73
2023/12/07 11:22:07;;;;;;;4.72;2.30;;;;;;;;;;5003570;27;103409;-73
2023/12/07 11:24:33;;;;;;;7.47;2.40;;;;;;;;;;5000468;28;99646;-73
2023/12/07 11:27:00;;;;;;;5.72;2.35;;;;;;;;;;5003878;28;98508;-74
2023/12/07 11:29:30;;;;;;;6.22;2.55;;;;;;;;;;5001558;28;99101;-71
2023/12/07 11:32:04;;;;;;;4.70;2.33;;;;;;;;;;5000464;28;100347;-72
2023/12/07 11:34:43;;;;;;;5.20;2.40;;;;;;;;;;5001251;28;98784;-73
2023/12/07 11:37:10;;;;;;;5.80;2.25;;;;;;;;;;5000948;28;100013;-73
2023/12/07 11:39:37;;;;;;;5.13;2.30;;;;;;;;;;5000771;28;99521;-72
2023/12/07 11:42:09;;;;;;;5.75;2.45;;;;;;;;;;5005925;28;98620;-72
2023/12/07 11:44:40;;;;;;;5.15;2.45;;;;;;;;;;5001853;27;100338;-72
2023/12/07 11:47:08;;;;;;;5.90;2.30;;;;;;;;;;4981765;28;99469;-72
2023/12/07 11:49:35;;;;;;;5.25;2.50;;;;;;;;;;4999558;28;99650;-72
2023/12/07 11:52:18;;;;;;;5.22;2.30;;;;;;;;;;5001393;28;99216;-73
2023/12/07 11:54:49;;;;;;;6.50;2.38;;;;;;;;;;5002290;28;98736;-73
2023/12/07 11:57:16;;;;;;;6.50;2.45;;;;;;;;;;5002211;28;98952;-72
2023/12/07 11:59:47;;;;;;;5.30;2.17;;;;;;;;;;5000360;28;99184;-72
2023/12/07 12:02:15;;;;;;;4.97;2.28;;;;;;;;;;5005275;28;99055;-73
2023/12/07 12:04:42;;;;;;;5.22;2.40;;;;;;;;;;5003673;28;98419;-72
2023/12/07 12:07:09;;;;;;;;;;;;;;;;;;5006413;28;99208;-72
2023/12/07 12:09:36;;;;;;;5.35;2.40;;;;;;;;;;5006458;28;99597;-71
2023/12/07 12:12:03;;;;;;;5.05;2.20;;;;;;;;;;5004337;28;99988;-73
2023/12/07 12:14:29;;;;;;;4.75;2.13;;;;;;;;;;5005366;28;98813;-73
2023/12/07 12:16:56;;;;;;;5.40;2.47;;;;;;;;;;5005279;28;99056;-73
2023/12/07 12:19:27;;;;;;;5.18;2.30;;;;;;;;;;5004619;28;100380;-73
2023/12/07 12:22:02;;;;;;;5.32;2.45;;;;;;;;;;5005310;28;98846;-73
2023/12/07 12:24:33;;;;;;;6.13;2.60;;;;;;;;;;5007789;28;99222;-73
2023/12/07 12:27:00;;;;;;;5.80;2.67;;;;;;;;;;5005307;28;98608;-74
2023/12/07 12:29:27;;;;;;;5.88;2.63;;;;;;;;;;5005419;28;98876;-73
2023/12/07 12:32:01;;;;;;;5.32;2.50;;;;;;;;;;5004529;28;103951;-73
2023/12/07 12:34:29;;;;;;;5.68;2.55;;;;;;;;;;5005114;28;100007;-73
2023/12/07 12:36:56;;;;;;;6.03;2.60;;;;;;;;;;5005511;28;99676;-74
2023/12/07 12:39:29;;;;;;;5.45;2.65;;;;;;;;;;5003583;28;100214;-72
2023/12/07 12:42:00;;;;;;;6.25;2.47;;;;;;;;;;5004877;28;98566;-74
2023/12/07 12:44:27;;;;;;;5.80;2.60;;;;;;;;;;5004944;27;98823;-73
2023/12/07 12:47:04;;;;;;;6.00;2.50;;;;;;;;;;4988222;28;99092;-73
2023/12/07 12:49:37;;;;;;;5.72;2.72;;;;;;;;;;4984790;28;99334;-73
2023/12/07 12:52:04;;;;;;;6.15;2.55;;;;;;;;;;4984357;28;104906;-73
2023/12/07 12:54:34;;;;;;;5.63;2.50;;;;;;;;;;4984882;28;99724;-73
2023/12/07 12:57:01;;;;;;;6.53;2.70;;;;;;;;;;4984922;28;99134;-74
2023/12/07 12:59:27;;;;;;;6.75;2.75;;;;;;;;;;4984021;28;99093;-72
2023/12/07 13:01:54;;;;;;;5.88;2.83;;;;;;;;;;4984153;28;99709;-73
2023/12/07 13:04:21;;;;;;;6.40;2.80;;;;;;;;;;4985236;28;100678;-74
2023/12/07 13:06:48;;;;;;;6.13;2.58;;;;;;;;;;4984298;28;100403;-74
2023/12/07 13:09:16;;;;;;;5.88;2.90;;;;;;;;;;4988383;28;99205;-73
2023/12/07 13:11:43;;;;;;;6.50;2.95;;;;;;;;;;4983772;28;99237;-73
2023/12/07 13:14:09;;;;;;;5.68;2.67;;;;;;;;;;4985467;28;98758;-73
2023/12/07 13:16:36;;;;;;;5.63;2.60;;;;;;;;;;4983525;28;99895;-73
2023/12/07 13:19:03;;;;;;;;;;;;;;;;;;4985503;28;99265;-73
2023/12/07 13:21:29;;;;;;;6.63;3.15;;;;;;;;;;4985901;28;101825;-73
2023/12/07 13:23:58;;;;;;;5.43;2.60;;;;;;;;;;4984435;28;98961;-73
2023/12/07 13:26:26;;;;;;;5.72;2.55;;;;;;;;;;4984280;28;99925;-73
2023/12/07 13:28:53;;;;;;;5.20;2.55;;;;;;;;;;4984768;28;99054;-73
2023/12/07 13:31:20;;;;;;;6.00;2.80;;;;;;;;;;5003062;28;99037;-73
2023/12/07 13:33:47;;;;;;;5.25;2.67;;;;;;;;;;5003813;28;98904;-73
2023/12/07 13:36:24;;;;;;;5.25;2.60;;;;;;;;;;5004121;28;99838;-73
2023/12/07 13:38:50;;;;;;;6.25;3.00;;;;;;;;;;4985621;28;100235;-73
2023/12/07 13:41:17;;;;;;;5.82;2.67;;;;;;;;;;5004144;28;98783;-73
2023/12/07 13:43:43;;;;;;;6.82;3.00;;;;;;;;;;4999394;28;99030;-73
2023/12/07 13:46:10;;;;;;;6.10;3.00;;;;;;;;;;5003331;28;100194;-73
2023/12/07 13:48:37;;;;;;;;;;;;;;;;;;5004307;28;98569;-73
2023/12/07 13:51:04;;;;;;;7.50;2.78;;;;;;;;;;5007927;28;99338;-73
2023/12/07 13:53:31;;;;;;;5.85;2.90;;;;;;;;;;5004048;28;99929;-73
2023/12/07 13:55:57;;;;;;;6.30;3.00;;;;;;;;;;5003008;28;100027;-73
2023/12/07 13:58:24;;;;;;;7.22;3.38;;;;;;;;;;5003810;28;99075;-73
2023/12/07 14:00:50;;;;;;;6.53;3.17;;;;;;;;;;5002187;28;98811;-73
2023/12/07 14:03:17;;;;;;;6.47;3.17;;;;;;;;;;4992824;28;99993;-73
2023/12/07 14:05:45;;;;;;;6.47;2.90;;;;;;;;;;4982605;28;100967;-73
2023/12/07 14:08:12;;;;;;;7.00;3.60;;;;;;;;;;4984438;28;98021;-73
2023/12/07 14:10:38;;;;;;;6.97;3.63;;;;;;;;;;4984099;28;99287;-74
2023/12/07 14:13:05;;;;;;;6.90;3.50;;;;;;;;;;4986743;28;100301;-73
2023/12/07 14:15:35;;;;;;;6.93;3.60;;;;;;;;;;4982979;28;99942;-73
2023/12/07 14:18:10;;;;;;;6.63;3.33;;;;;;;;;;4995137;28;100143;-73
2023/12/07 14:20:37;;;;;;;;;;;;;;;;;;5004213;28;98708;-73
2023/12/07 14:23:07;;;;;;;7.28;3.42;;;;;;;;;;5005422;28;99454;-73
2023/12/07 14:25:34;;;;;;;7.25;3.40;;;;;;;;;;5002337;28;99545;-70
2023/12/07 14:28:00;;;;;;;7.78;3.80;;;;;;;;;;4985203;28;100267;-73
2023/12/07 14:30:27;;;;;;;7.53;3.80;;;;;;;;;;4996853;28;99856;-73
2023/12/07 14:32:53;;;;;;;6.32;3.10;;;;;;;;;;5011289;28;98509;-74
2023/12/07 14:35:20;;;;;;;8.45;3.60;;;;;;;;;;4990230;28;98683;-72
2023/12/07 14:37:49;;;;;;;8.10;4.00;;;;;;;;;;4998183;28;99317;-71
2023/12/07 14:40:17;;;;;;;6.22;3.13;;;;;;;;;;5008659;28;99615;-73
2023/12/07 14:42:45;;;;;;;6.97;3.50;;;;;;;;;;5010320;28;99619;-74
2023/12/07 14:45:11;;;;;;;6.55;3.30;;;;;;;;;;5012849;27;99253;-72